Detall de PIREP

Printer-friendly versionPDF version

[2015/06/30 06:35:00]
Flight IATA:CT1005
Pilot Number:011
Company ICAO:CAT
Aircraft Type:B738/F
PAX:160
Departing Airport: LMML
Destination Airport: EPGD
Alternate Airport:EPWA
Online: VATSIM
Route:GZO UN982 AMANO UM742 SOR UM725 SPL UL196 VEBAL UY552 PUSTA UM986 TPS UL853 MEBAN UM985 JED UN133 GRU N133 LODNI
Flight Level:F400
No Slew and time accel
No pause
Crash detect
Detect pilot in Cockpit between each 30 and 45 minutes
06:35 Zero fuel Weight: 134491 Lbs, Fuel Weight: 26763 Lbs
06:35 VATSIM:LMML 300615Z VRB02KT CAVOK 25/17 Q1019 NOSIG
06:35 VATSIM:EPGD 300600Z 27005KT 230V290 CAVOK 18/14 Q1019
06:39 Parking Brakes off
06:50 Take-off
06:50 Take off Weight: 160312 Lbs
06:50 Wind: 278º @ 001 Knots Heading: 314º
06:50 POS N35º 50´ 58´´ E014º 29´ 21´´
06:50 Gear Up: 176 Knots
06:50 Flaps:5 at 176 Knots
06:51 Flaps:4 at 212 Knots
06:51 Flaps:3 at 216 Knots
06:51Flaps:1 at 226 Knots
06:51 Flaps:0 at 227 Knots
07:05 Wind:265º@001 Knots Heading: 004º Ground Speed: 392 Knots Altitude 32014 ft
07:15 TOC
07:15 Fuel Weight: 21690 Lb
07:20 Wind:336º@010 Knots Heading: 001º Ground Speed: 462 Knots Altitude 40164 ft
07:35 Wind:216º@000 Knots Heading: 352º Ground Speed: 469 Knots Altitude 40200 ft
07:50 Wind:305º@028 Knots Heading: 022º Ground Speed: 464 Knots Altitude 40170 ft
08:05 Wind:056º@013 Knots Heading: 014º Ground Speed: 461 Knots Altitude 40193 ft
08:20 Wind:354º@015 Knots Heading: 024º Ground Speed: 452 Knots Altitude 40259 ft
08:35 Wind:034º@018 Knots Heading: 055º Ground Speed: 450 Knots Altitude 40232 ft
08:50 Wind:084º@013 Knots Heading: 002º Ground Speed: 465 Knots Altitude 40255 ft
09:05 Wind:275º@011 Knots Heading: 338º Ground Speed: 459 Knots Altitude 40246 ft
09:12 TOD
09:12 Fuel Weight: 12681 Lb
09:20 Wind:272º@016 Knots Heading: 341º Ground Speed: 388 Knots Altitude 28080 ft
09:35 Wind:287º@017 Knots Heading: 333º Ground Speed: 295 Knots Altitude 4806 ft
09:37 Flaps:1 at 249 Knots
09:37 Flaps:2 at 247 Knots
09:37 Flaps:3 at 246 Knots
09:38 Flaps:4 at 220 Knots
09:39 Flaps:5 at 205 Knots
09:40 Flaps:6 at 182 Knots
09:40 Gear Down: 180 Knots
09:40 Flaps:7 at 173 Knots
09:42 Flaps:8 at 169 Knots
09:46 TouchDown:Rate -119 ft/min Speed: 119 Knots
09:47 VATSIM:EPGD 300930Z 29012KT 9999 SCT030 20/12 Q1020
09:47 Land
09:47 Wind:288º@012 Knots
09:47 Heading: 292º
09:47 Flight Duration: 02:57
09:47 Landing Weight: 145005 Lbs
09:47 POS N54º 22´ 31´´ E018º 28´ 30´´
09:49 Parking brakes on
09:49 Block to Block Duration: 03:10
09:49 Final Fuel: 10368 Lbls
09:49 Spent Fuel: 16395 Lbls
09:49 Flight Length: 1118 NM
09:49 TOD Land Length: 180 NM

Exportar CSV

Powered by Drupal - Modified by Danger4k